sensor_id;sensor_type;location;lat;lon;timestamp;P1;durP1;ratioP1;P2;durP2;ratioP2
19312;SDS011;9791;50.820;4.406;2023-04-24T00:01:14;13.35;;;8.68;;
19312;SDS011;9791;50.820;4.406;2023-04-24T00:03:42;17.90;;;9.43;;
19312;SDS011;9791;50.820;4.406;2023-04-24T00:06:08;19.05;;;9.45;;
19312;SDS011;9791;50.820;4.406;2023-04-24T00:08:34;14.23;;;9.23;;
19312;SDS011;9791;50.820;4.406;2023-04-24T00:11:01;16.02;;;9.20;;
19312;SDS011;9791;50.820;4.406;2023-04-24T00:13:27;15.27;;;9.20;;
19312;SDS011;9791;50.820;4.406;2023-04-24T00:15:54;15.27;;;9.60;;
19312;SDS011;9791;50.820;4.406;2023-04-24T00:18:21;16.55;;;9.25;;
19312;SDS011;9791;50.820;4.406;2023-04-24T00:20:47;17.38;;;10.30;;
19312;SDS011;9791;50.820;4.406;2023-04-24T00:23:13;16.38;;;8.75;;
19312;SDS011;9791;50.820;4.406;2023-04-24T00:25:39;16.92;;;9.55;;
19312;SDS011;9791;50.820;4.406;2023-04-24T00:28:05;21.45;;;9.95;;
19312;SDS011;9791;50.820;4.406;2023-04-24T00:30:31;15.02;;;9.95;;
19312;SDS011;9791;50.820;4.406;2023-04-24T00:32:57;16.77;;;9.68;;
19312;SDS011;9791;50.820;4.406;2023-04-24T00:35:23;17.33;;;9.10;;
19312;SDS011;9791;50.820;4.406;2023-04-24T00:37:49;21.85;;;9.25;;
19312;SDS011;9791;50.820;4.406;2023-04-24T00:40:15;15.45;;;9.27;;
19312;SDS011;9791;50.820;4.406;2023-04-24T00:42:41;16.23;;;9.18;;
19312;SDS011;9791;50.820;4.406;2023-04-24T00:45:10;15.35;;;8.82;;
19312;SDS011;9791;50.820;4.406;2023-04-24T00:47:36;14.57;;;9.07;;
19312;SDS011;9791;50.820;4.406;2023-04-24T00:50:04;16.80;;;9.75;;
19312;SDS011;9791;50.820;4.406;2023-04-24T00:52:30;15.48;;;9.75;;
19312;SDS011;9791;50.820;4.406;2023-04-24T00:54:57;20.20;;;9.95;;
19312;SDS011;9791;50.820;4.406;2023-04-24T00:57:24;21.83;;;10.10;;
19312;SDS011;9791;50.820;4.406;2023-04-24T00:59:50;16.75;;;9.55;;
19312;SDS011;9791;50.820;4.406;2023-04-24T01:02:17;18.15;;;9.70;;
19312;SDS011;9791;50.820;4.406;2023-04-24T01:04:43;14.18;;;9.13;;
19312;SDS011;9791;50.820;4.406;2023-04-24T01:07:10;15.60;;;9.65;;
19312;SDS011;9791;50.820;4.406;2023-04-24T01:09:42;15.27;;;9.07;;
19312;SDS011;9791;50.820;4.406;2023-04-24T01:12:13;19.77;;;9.88;;
19312;SDS011;9791;50.820;4.406;2023-04-24T01:14:39;12.73;;;9.68;;
19312;SDS011;9791;50.820;4.406;2023-04-24T01:17:05;17.42;;;10.82;;
19312;SDS011;9791;50.820;4.406;2023-04-24T01:19:32;20.70;;;9.90;;
19312;SDS011;9791;50.820;4.406;2023-04-24T01:21:58;16.05;;;10.00;;
19312;SDS011;9791;50.820;4.406;2023-04-24T01:24:24;18.85;;;10.05;;
19312;SDS011;9791;50.820;4.406;2023-04-24T01:26:50;17.42;;;9.77;;
19312;SDS011;9791;50.820;4.406;2023-04-24T01:29:16;15.35;;;9.25;;
19312;SDS011;9791;50.820;4.406;2023-04-24T01:31:43;16.60;;;10.07;;
19312;SDS011;9791;50.820;4.406;2023-04-24T01:34:09;13.13;;;8.55;;
19312;SDS011;9791;50.820;4.406;2023-04-24T01:36:35;15.43;;;8.45;;
19312;SDS011;9791;50.820;4.406;2023-04-24T01:39:01;15.70;;;8.88;;
19312;SDS011;9791;50.820;4.406;2023-04-24T01:41:28;15.20;;;8.35;;
19312;SDS011;9791;50.820;4.406;2023-04-24T01:43:55;14.63;;;8.40;;
19312;SDS011;9791;50.820;4.406;2023-04-24T01:46:22;14.65;;;7.97;;
19312;SDS011;9791;50.820;4.406;2023-04-24T01:48:49;11.88;;;8.40;;
19312;SDS011;9791;50.820;4.406;2023-04-24T01:51:16;13.30;;;8.02;;
19312;SDS011;9791;50.820;4.406;2023-04-24T01:53:42;16.33;;;9.10;;
19312;SDS011;9791;50.820;4.406;2023-04-24T01:56:09;15.02;;;9.10;;
19312;SDS011;9791;50.820;4.406;2023-04-24T01:58:35;13.77;;;8.70;;
19312;SDS011;9791;50.820;4.406;2023-04-24T02:01:01;16.35;;;10.52;;
19312;SDS011;9791;50.820;4.406;2023-04-24T02:03:27;16.85;;;10.57;;
19312;SDS011;9791;50.820;4.406;2023-04-24T02:05:53;17.85;;;9.27;;
19312;SDS011;9791;50.820;4.406;2023-04-24T02:08:19;14.32;;;9.43;;
19312;SDS011;9791;50.820;4.406;2023-04-24T02:10:46;16.02;;;10.18;;
19312;SDS011;9791;50.820;4.406;2023-04-24T02:13:12;16.30;;;10.20;;
19312;SDS011;9791;50.820;4.406;2023-04-24T02:15:38;14.00;;;10.70;;
19312;SDS011;9791;50.820;4.406;2023-04-24T02:18:04;20.02;;;11.13;;
19312;SDS011;9791;50.820;4.406;2023-04-24T02:20:32;16.42;;;11.10;;
19312;SDS011;9791;50.820;4.406;2023-04-24T02:23:00;18.90;;;11.45;;
19312;SDS011;9791;50.820;4.406;2023-04-24T02:25:26;21.55;;;12.60;;
19312;SDS011;9791;50.820;4.406;2023-04-24T02:27:52;17.52;;;10.60;;
19312;SDS011;9791;50.820;4.406;2023-04-24T02:30:18;17.92;;;10.75;;
19312;SDS011;9791;50.820;4.406;2023-04-24T02:32:44;17.25;;;11.55;;
19312;SDS011;9791;50.820;4.406;2023-04-24T02:35:10;15.90;;;10.95;;
19312;SDS011;9791;50.820;4.406;2023-04-24T02:37:36;17.30;;;11.05;;
19312;SDS011;9791;50.820;4.406;2023-04-24T02:40:03;14.93;;;11.05;;
19312;SDS011;9791;50.820;4.406;2023-04-24T02:42:30;20.08;;;11.55;;
19312;SDS011;9791;50.820;4.406;2023-04-24T02:44:56;16.58;;;10.00;;
19312;SDS011;9791;50.820;4.406;2023-04-24T02:47:23;17.30;;;9.80;;
19312;SDS011;9791;50.820;4.406;2023-04-24T02:49:49;15.20;;;9.80;;
19312;SDS011;9791;50.820;4.406;2023-04-24T02:52:15;16.45;;;9.32;;
19312;SDS011;9791;50.820;4.406;2023-04-24T02:54:42;15.48;;;9.00;;
19312;SDS011;9791;50.820;4.406;2023-04-24T02:57:08;16.02;;;9.85;;
19312;SDS011;9791;50.820;4.406;2023-04-24T02:59:34;14.35;;;9.15;;
19312;SDS011;9791;50.820;4.406;2023-04-24T03:02:00;14.65;;;9.68;;
19312;SDS011;9791;50.820;4.406;2023-04-24T03:04:26;15.57;;;9.15;;
19312;SDS011;9791;50.820;4.406;2023-04-24T03:06:52;14.85;;;8.65;;
19312;SDS011;9791;50.820;4.406;2023-04-24T03:09:20;14.18;;;8.57;;
19312;SDS011;9791;50.820;4.406;2023-04-24T03:11:46;13.18;;;8.52;;
19312;SDS011;9791;50.820;4.406;2023-04-24T03:14:13;12.75;;;7.88;;
19312;SDS011;9791;50.820;4.406;2023-04-24T03:16:39;13.70;;;7.57;;
19312;SDS011;9791;50.820;4.406;2023-04-24T03:19:05;15.63;;;8.63;;
19312;SDS011;9791;50.820;4.406;2023-04-24T03:21:31;12.88;;;7.00;;
19312;SDS011;9791;50.820;4.406;2023-04-24T03:23:58;11.77;;;7.05;;
19312;SDS011;9791;50.820;4.406;2023-04-24T03:26:24;13.35;;;7.03;;
19312;SDS011;9791;50.820;4.406;2023-04-24T03:28:50;9.15;;;6.82;;
19312;SDS011;9791;50.820;4.406;2023-04-24T03:31:16;12.35;;;7.60;;
19312;SDS011;9791;50.820;4.406;2023-04-24T03:33:42;13.65;;;7.68;;
19312;SDS011;9791;50.820;4.406;2023-04-24T03:36:08;11.23;;;7.80;;
19312;SDS011;9791;50.820;4.406;2023-04-24T03:38:34;10.88;;;7.22;;
19312;SDS011;9791;50.820;4.406;2023-04-24T03:41:00;10.60;;;7.47;;
19312;SDS011;9791;50.820;4.406;2023-04-24T03:43:26;13.02;;;7.47;;
19312;SDS011;9791;50.820;4.406;2023-04-24T03:45:52;13.65;;;7.38;;
19312;SDS011;9791;50.820;4.406;2023-04-24T03:48:19;11.32;;;7.63;;
19312;SDS011;9791;50.820;4.406;2023-04-24T03:50:45;10.82;;;7.55;;
19312;SDS011;9791;50.820;4.406;2023-04-24T03:53:11;8.73;;;6.47;;
19312;SDS011;9791;50.820;4.406;2023-04-24T03:55:37;11.35;;;6.68;;
19312;SDS011;9791;50.820;4.406;2023-04-24T03:58:03;13.07;;;6.60;;
19312;SDS011;9791;50.820;4.406;2023-04-24T04:00:29;9.18;;;5.85;;
19312;SDS011;9791;50.820;4.406;2023-04-24T04:02:56;11.77;;;5.80;;
19312;SDS011;9791;50.820;4.406;2023-04-24T04:05:22;8.52;;;5.20;;
19312;SDS011;9791;50.820;4.406;2023-04-24T04:07:48;8.82;;;5.38;;
19312;SDS011;9791;50.820;4.406;2023-04-24T04:10:14;9.35;;;5.00;;
19312;SDS011;9791;50.820;4.406;2023-04-24T04:12:42;10.50;;;6.25;;
19312;SDS011;9791;50.820;4.406;2023-04-24T04:15:08;7.53;;;5.15;;
19312;SDS011;9791;50.820;4.406;2023-04-24T04:17:34;7.53;;;5.18;;
19312;SDS011;9791;50.820;4.406;2023-04-24T04:20:00;7.40;;;4.78;;
19312;SDS011;9791;50.820;4.406;2023-04-24T04:22:29;7.15;;;4.32;;
19312;SDS011;9791;50.820;4.406;2023-04-24T04:24:55;8.88;;;4.75;;
19312;SDS011;9791;50.820;4.406;2023-04-24T04:27:21;8.48;;;4.80;;
19312;SDS011;9791;50.820;4.406;2023-04-24T04:29:47;5.63;;;3.83;;
19312;SDS011;9791;50.820;4.406;2023-04-24T04:32:13;9.15;;;5.10;;
19312;SDS011;9791;50.820;4.406;2023-04-24T04:34:40;6.68;;;3.83;;
19312;SDS011;9791;50.820;4.406;2023-04-24T04:37:06;8.27;;;4.65;;
19312;SDS011;9791;50.820;4.406;2023-04-24T04:39:33;7.60;;;4.50;;
19312;SDS011;9791;50.820;4.406;2023-04-24T04:41:59;6.95;;;4.30;;
19312;SDS011;9791;50.820;4.406;2023-04-24T04:44:25;6.63;;;4.65;;
19312;SDS011;9791;50.820;4.406;2023-04-24T04:46:52;7.43;;;5.15;;
19312;SDS011;9791;50.820;4.406;2023-04-24T04:49:21;7.47;;;4.38;;
19312;SDS011;9791;50.820;4.406;2023-04-24T04:51:48;9.30;;;4.70;;
19312;SDS011;9791;50.820;4.406;2023-04-24T04:54:15;8.75;;;5.63;;
19312;SDS011;9791;50.820;4.406;2023-04-24T04:56:41;8.75;;;5.03;;
19312;SDS011;9791;50.820;4.406;2023-04-24T04:59:07;8.93;;;5.75;;
19312;SDS011;9791;50.820;4.406;2023-04-24T05:01:33;11.35;;;6.22;;
19312;SDS011;9791;50.820;4.406;2023-04-24T05:03:59;11.15;;;7.03;;
19312;SDS011;9791;50.820;4.406;2023-04-24T05:06:25;12.18;;;7.32;;
19312;SDS011;9791;50.820;4.406;2023-04-24T05:08:52;11.15;;;7.05;;
19312;SDS011;9791;50.820;4.406;2023-04-24T05:11:22;9.10;;;6.88;;
19312;SDS011;9791;50.820;4.406;2023-04-24T05:13:48;14.15;;;7.15;;
19312;SDS011;9791;50.820;4.406;2023-04-24T05:16:14;11.40;;;7.78;;
19312;SDS011;9791;50.820;4.406;2023-04-24T05:18:40;13.40;;;7.10;;
19312;SDS011;9791;50.820;4.406;2023-04-24T05:21:06;11.07;;;7.35;;
19312;SDS011;9791;50.820;4.406;2023-04-24T05:23:32;12.30;;;7.28;;
19312;SDS011;9791;50.820;4.406;2023-04-24T05:25:58;12.70;;;7.57;;
19312;SDS011;9791;50.820;4.406;2023-04-24T05:28:24;15.73;;;9.13;;
19312;SDS011;9791;50.820;4.406;2023-04-24T05:30:53;11.82;;;7.30;;
19312;SDS011;9791;50.820;4.406;2023-04-24T05:33:21;15.75;;;8.18;;
19312;SDS011;9791;50.820;4.406;2023-04-24T05:35:47;12.23;;;7.78;;
19312;SDS011;9791;50.820;4.406;2023-04-24T05:38:14;10.13;;;7.13;;
19312;SDS011;9791;50.820;4.406;2023-04-24T05:40:42;13.07;;;8.57;;
19312;SDS011;9791;50.820;4.406;2023-04-24T05:43:08;15.25;;;8.05;;
19312;SDS011;9791;50.820;4.406;2023-04-24T05:45:34;12.73;;;8.15;;
19312;SDS011;9791;50.820;4.406;2023-04-24T05:48:01;14.18;;;8.20;;
19312;SDS011;9791;50.820;4.406;2023-04-24T05:50:27;13.57;;;8.10;;
19312;SDS011;9791;50.820;4.406;2023-04-24T05:52:53;18.73;;;8.38;;
19312;SDS011;9791;50.820;4.406;2023-04-24T05:55:19;13.43;;;8.02;;
19312;SDS011;9791;50.820;4.406;2023-04-24T05:57:45;12.52;;;8.30;;
19312;SDS011;9791;50.820;4.406;2023-04-24T06:00:12;13.52;;;7.88;;
19312;SDS011;9791;50.820;4.406;2023-04-24T06:02:38;16.00;;;8.68;;
19312;SDS011;9791;50.820;4.406;2023-04-24T06:05:04;13.45;;;8.45;;
19312;SDS011;9791;50.820;4.406;2023-04-24T06:07:31;13.20;;;8.02;;
19312;SDS011;9791;50.820;4.406;2023-04-24T06:09:57;16.42;;;8.77;;
19312;SDS011;9791;50.820;4.406;2023-04-24T06:12:23;18.00;;;8.52;;
19312;SDS011;9791;50.820;4.406;2023-04-24T06:14:49;17.20;;;8.88;;
19312;SDS011;9791;50.820;4.406;2023-04-24T06:17:15;16.45;;;8.27;;
19312;SDS011;9791;50.820;4.406;2023-04-24T06:19:41;12.82;;;7.90;;
19312;SDS011;9791;50.820;4.406;2023-04-24T06:22:07;17.55;;;8.52;;
19312;SDS011;9791;50.820;4.406;2023-04-24T06:24:33;15.85;;;8.88;;
19312;SDS011;9791;50.820;4.406;2023-04-24T06:26:59;13.68;;;8.93;;
19312;SDS011;9791;50.820;4.406;2023-04-24T06:29:26;15.52;;;9.20;;
19312;SDS011;9791;50.820;4.406;2023-04-24T06:31:52;15.30;;;8.90;;
19312;SDS011;9791;50.820;4.406;2023-04-24T06:34:18;15.35;;;9.50;;
19312;SDS011;9791;50.820;4.406;2023-04-24T06:36:46;19.90;;;8.95;;
19312;SDS011;9791;50.820;4.406;2023-04-24T06:39:12;15.20;;;9.98;;
19312;SDS011;9791;50.820;4.406;2023-04-24T06:41:38;17.70;;;9.77;;
19312;SDS011;9791;50.820;4.406;2023-04-24T06:44:05;18.02;;;10.70;;
19312;SDS011;9791;50.820;4.406;2023-04-24T06:46:31;16.55;;;10.68;;
19312;SDS011;9791;50.820;4.406;2023-04-24T06:48:57;15.50;;;10.15;;
19312;SDS011;9791;50.820;4.406;2023-04-24T06:51:23;19.45;;;10.45;;
19312;SDS011;9791;50.820;4.406;2023-04-24T06:53:51;18.27;;;10.65;;
19312;SDS011;9791;50.820;4.406;2023-04-24T06:56:17;21.65;;;11.05;;
19312;SDS011;9791;50.820;4.406;2023-04-24T06:58:43;20.75;;;10.32;;
19312;SDS011;9791;50.820;4.406;2023-04-24T07:01:10;18.27;;;10.52;;
19312;SDS011;9791;50.820;4.406;2023-04-24T07:03:36;15.30;;;10.95;;
19312;SDS011;9791;50.820;4.406;2023-04-24T07:06:02;22.98;;;11.23;;
19312;SDS011;9791;50.820;4.406;2023-04-24T07:08:28;21.67;;;10.25;;
19312;SDS011;9791;50.820;4.406;2023-04-24T07:11:01;16.88;;;10.65;;
19312;SDS011;9791;50.820;4.406;2023-04-24T07:13:27;18.42;;;11.25;;
19312;SDS011;9791;50.820;4.406;2023-04-24T07:15:53;18.33;;;10.60;;
19312;SDS011;9791;50.820;4.406;2023-04-24T07:18:21;20.88;;;11.20;;
19312;SDS011;9791;50.820;4.406;2023-04-24T07:20:47;20.38;;;10.25;;
19312;SDS011;9791;50.820;4.406;2023-04-24T07:23:15;16.83;;;9.68;;
19312;SDS011;9791;50.820;4.406;2023-04-24T07:25:41;22.08;;;10.15;;
19312;SDS011;9791;50.820;4.406;2023-04-24T07:28:07;15.63;;;9.48;;
19312;SDS011;9791;50.820;4.406;2023-04-24T07:30:33;16.20;;;9.65;;
19312;SDS011;9791;50.820;4.406;2023-04-24T07:32:59;15.20;;;8.15;;
19312;SDS011;9791;50.820;4.406;2023-04-24T07:35:26;12.63;;;7.75;;
19312;SDS011;9791;50.820;4.406;2023-04-24T07:37:55;11.80;;;8.00;;
19312;SDS011;9791;50.820;4.406;2023-04-24T07:40:21;17.95;;;8.95;;
19312;SDS011;9791;50.820;4.406;2023-04-24T07:42:48;17.40;;;8.77;;
19312;SDS011;9791;50.820;4.406;2023-04-24T07:45:14;12.40;;;7.70;;
19312;SDS011;9791;50.820;4.406;2023-04-24T07:47:41;16.50;;;8.38;;
19312;SDS011;9791;50.820;4.406;2023-04-24T07:50:08;17.70;;;8.40;;
19312;SDS011;9791;50.820;4.406;2023-04-24T07:52:35;14.68;;;9.07;;
19312;SDS011;9791;50.820;4.406;2023-04-24T07:55:01;16.83;;;9.27;;
19312;SDS011;9791;50.820;4.406;2023-04-24T07:57:27;18.42;;;8.98;;
19312;SDS011;9791;50.820;4.406;2023-04-24T07:59:53;18.80;;;9.13;;
19312;SDS011;9791;50.820;4.406;2023-04-24T08:02:20;20.13;;;8.30;;
19312;SDS011;9791;50.820;4.406;2023-04-24T08:04:51;11.43;;;7.18;;
19312;SDS011;9791;50.820;4.406;2023-04-24T08:07:17;14.52;;;6.47;;
19312;SDS011;9791;50.820;4.406;2023-04-24T08:09:43;11.57;;;7.30;;
19312;SDS011;9791;50.820;4.406;2023-04-24T08:12:09;15.30;;;7.18;;
19312;SDS011;9791;50.820;4.406;2023-04-24T08:14:35;14.00;;;6.82;;
19312;SDS011;9791;50.820;4.406;2023-04-24T08:17:01;13.15;;;6.85;;
19312;SDS011;9791;50.820;4.406;2023-04-24T08:19:28;14.00;;;6.53;;
19312;SDS011;9791;50.820;4.406;2023-04-24T08:21:54;13.57;;;6.97;;
19312;SDS011;9791;50.820;4.406;2023-04-24T08:24:20;15.05;;;5.75;;
19312;SDS011;9791;50.820;4.406;2023-04-24T08:26:46;17.13;;;5.90;;
19312;SDS011;9791;50.820;4.406;2023-04-24T08:29:15;13.57;;;5.43;;
19312;SDS011;9791;50.820;4.406;2023-04-24T08:31:41;12.70;;;5.70;;
19312;SDS011;9791;50.820;4.406;2023-04-24T08:34:09;13.30;;;5.55;;
19312;SDS011;9791;50.820;4.406;2023-04-24T08:36:35;13.50;;;5.18;;
19312;SDS011;9791;50.820;4.406;2023-04-24T08:39:02;15.60;;;6.60;;
19312;SDS011;9791;50.820;4.406;2023-04-24T08:41:28;14.50;;;5.82;;
19312;SDS011;9791;50.820;4.406;2023-04-24T08:43:54;10.75;;;5.63;;
19312;SDS011;9791;50.820;4.406;2023-04-24T08:46:23;13.43;;;5.10;;
19312;SDS011;9791;50.820;4.406;2023-04-24T08:48:50;10.95;;;4.47;;
19312;SDS011;9791;50.820;4.406;2023-04-24T08:51:18;11.13;;;3.70;;
19312;SDS011;9791;50.820;4.406;2023-04-24T08:53:45;9.35;;;3.85;;
19312;SDS011;9791;50.820;4.406;2023-04-24T08:56:11;7.70;;;3.40;;
19312;SDS011;9791;50.820;4.406;2023-04-24T08:58:37;9.20;;;3.47;;
19312;SDS011;9791;50.820;4.406;2023-04-24T09:01:04;6.63;;;3.17;;
19312;SDS011;9791;50.820;4.406;2023-04-24T09:03:30;8.93;;;3.20;;
19312;SDS011;9791;50.820;4.406;2023-04-24T09:05:57;8.32;;;3.00;;
19312;SDS011;9791;50.820;4.406;2023-04-24T09:08:24;9.55;;;3.30;;
19312;SDS011;9791;50.820;4.406;2023-04-24T09:10:50;10.25;;;3.28;;
19312;SDS011;9791;50.820;4.406;2023-04-24T09:13:16;8.73;;;3.28;;
19312;SDS011;9791;50.820;4.406;2023-04-24T09:15:43;7.00;;;3.00;;
19312;SDS011;9791;50.820;4.406;2023-04-24T09:18:09;10.63;;;3.25;;
19312;SDS011;9791;50.820;4.406;2023-04-24T09:20:52;8.20;;;2.97;;
19312;SDS011;9791;50.820;4.406;2023-04-24T09:23:21;7.00;;;2.80;;
19312;SDS011;9791;50.820;4.406;2023-04-24T09:25:48;7.60;;;2.65;;
19312;SDS011;9791;50.820;4.406;2023-04-24T09:28:22;5.20;;;2.45;;
19312;SDS011;9791;50.820;4.406;2023-04-24T09:31:01;9.65;;;3.22;;
19312;SDS011;9791;50.820;4.406;2023-04-24T09:33:28;10.40;;;3.75;;
19312;SDS011;9791;50.820;4.406;2023-04-24T09:35:54;7.90;;;2.92;;
19312;SDS011;9791;50.820;4.406;2023-04-24T09:38:30;11.95;;;3.25;;
19312;SDS011;9791;50.820;4.406;2023-04-24T09:41:00;7.78;;;3.00;;
19312;SDS011;9791;50.820;4.406;2023-04-24T09:43:28;11.57;;;3.50;;
19312;SDS011;9791;50.820;4.406;2023-04-24T09:45:58;7.93;;;3.00;;
19312;SDS011;9791;50.820;4.406;2023-04-24T09:48:30;5.63;;;2.40;;
19312;SDS011;9791;50.820;4.406;2023-04-24T09:50:57;8.52;;;2.63;;
19312;SDS011;9791;50.820;4.406;2023-04-24T09:53:24;6.20;;;2.53;;
19312;SDS011;9791;50.820;4.406;2023-04-24T09:55:50;11.02;;;2.83;;
19312;SDS011;9791;50.820;4.406;2023-04-24T09:58:18;10.02;;;2.88;;
19312;SDS011;9791;50.820;4.406;2023-04-24T10:00:44;8.93;;;3.13;;
19312;SDS011;9791;50.820;4.406;2023-04-24T10:03:11;5.88;;;2.97;;
19312;SDS011;9791;50.820;4.406;2023-04-24T10:05:37;9.68;;;3.38;;
19312;SDS011;9791;50.820;4.406;2023-04-24T10:08:04;8.13;;;3.15;;
19312;SDS011;9791;50.820;4.406;2023-04-24T10:10:31;8.93;;;3.00;;
19312;SDS011;9791;50.820;4.406;2023-04-24T10:12:59;9.45;;;3.15;;
19312;SDS011;9791;50.820;4.406;2023-04-24T10:15:25;9.45;;;3.28;;
19312;SDS011;9791;50.820;4.406;2023-04-24T10:17:51;5.85;;;2.70;;
19312;SDS011;9791;50.820;4.406;2023-04-24T10:20:21;9.85;;;3.33;;
19312;SDS011;9791;50.820;4.406;2023-04-24T10:22:48;10.55;;;3.42;;
19312;SDS011;9791;50.820;4.406;2023-04-24T10:25:16;9.15;;;3.17;;
19312;SDS011;9791;50.820;4.406;2023-04-24T10:27:42;7.65;;;3.08;;
19312;SDS011;9791;50.820;4.406;2023-04-24T10:30:09;9.38;;;3.40;;
19312;SDS011;9791;50.820;4.406;2023-04-24T10:32:37;8.18;;;3.22;;
19312;SDS011;9791;50.820;4.406;2023-04-24T10:35:03;6.18;;;3.25;;
19312;SDS011;9791;50.820;4.406;2023-04-24T10:37:29;8.40;;;3.60;;
19312;SDS011;9791;50.820;4.406;2023-04-24T10:40:00;8.85;;;3.75;;
19312;SDS011;9791;50.820;4.406;2023-04-24T10:42:27;11.85;;;4.22;;
19312;SDS011;9791;50.820;4.406;2023-04-24T10:44:53;9.15;;;4.07;;
19312;SDS011;9791;50.820;4.406;2023-04-24T10:47:21;8.85;;;3.90;;
19312;SDS011;9791;50.820;4.406;2023-04-24T10:49:48;8.57;;;3.63;;
19312;SDS011;9791;50.820;4.406;2023-04-24T10:52:16;11.73;;;3.55;;
19312;SDS011;9791;50.820;4.406;2023-04-24T10:54:46;8.23;;;3.45;;
19312;SDS011;9791;50.820;4.406;2023-04-24T10:59:45;9.10;;;3.75;;
19312;SDS011;9791;50.820;4.406;2023-04-24T11:02:13;7.00;;;3.35;;
19312;SDS011;9791;50.820;4.406;2023-04-24T11:04:40;7.20;;;2.67;;
19312;SDS011;9791;50.820;4.406;2023-04-24T11:07:08;7.95;;;3.20;;
19312;SDS011;9791;50.820;4.406;2023-04-24T11:09:35;7.38;;;2.90;;
19312;SDS011;9791;50.820;4.406;2023-04-24T11:17:33;5.95;;;3.10;;
19312;SDS011;9791;50.820;4.406;2023-04-24T11:20:03;6.03;;;3.08;;
19312;SDS011;9791;50.820;4.406;2023-04-24T11:22:32;8.20;;;2.90;;
19312;SDS011;9791;50.820;4.406;2023-04-24T11:25:00;7.55;;;3.22;;
19312;SDS011;9791;50.820;4.406;2023-04-24T11:27:30;6.32;;;3.38;;
19312;SDS011;9791;50.820;4.406;2023-04-24T11:30:00;9.52;;;3.30;;
19312;SDS011;9791;50.820;4.406;2023-04-24T11:34:54;7.57;;;3.28;;
19312;SDS011;9791;50.820;4.406;2023-04-24T11:37:21;11.77;;;4.20;;
19312;SDS011;9791;50.820;4.406;2023-04-24T11:39:50;9.20;;;3.63;;
19312;SDS011;9791;50.820;4.406;2023-04-24T11:42:16;6.22;;;2.90;;
19312;SDS011;9791;50.820;4.406;2023-04-24T11:44:42;8.40;;;3.53;;
19312;SDS011;9791;50.820;4.406;2023-04-24T11:47:08;10.23;;;4.13;;
19312;SDS011;9791;50.820;4.406;2023-04-24T11:49:37;7.88;;;3.58;;
19312;SDS011;9791;50.820;4.406;2023-04-24T11:52:04;8.85;;;3.83;;
19312;SDS011;9791;50.820;4.406;2023-04-24T11:54:30;7.82;;;4.35;;
19312;SDS011;9791;50.820;4.406;2023-04-24T11:56:56;10.70;;;4.10;;
19312;SDS011;9791;50.820;4.406;2023-04-24T11:59:23;7.25;;;4.05;;
19312;SDS011;9791;50.820;4.406;2023-04-24T12:01:49;7.88;;;4.00;;
19312;SDS011;9791;50.820;4.406;2023-04-24T12:04:16;8.30;;;4.10;;
19312;SDS011;9791;50.820;4.406;2023-04-24T12:07:01;9.30;;;4.20;;
19312;SDS011;9791;50.820;4.406;2023-04-24T12:09:27;7.10;;;4.05;;
19312;SDS011;9791;50.820;4.406;2023-04-24T12:11:53;10.52;;;4.25;;
19312;SDS011;9791;50.820;4.406;2023-04-24T12:14:22;9.23;;;4.50;;
19312;SDS011;9791;50.820;4.406;2023-04-24T12:16:51;7.80;;;4.22;;
19312;SDS011;9791;50.820;4.406;2023-04-24T12:19:17;7.82;;;4.07;;
19312;SDS011;9791;50.820;4.406;2023-04-24T12:21:45;8.27;;;4.13;;
19312;SDS011;9791;50.820;4.406;2023-04-24T12:24:23;8.68;;;4.43;;
19312;SDS011;9791;50.820;4.406;2023-04-24T12:26:49;8.55;;;3.92;;
19312;SDS011;9791;50.820;4.406;2023-04-24T12:29:22;8.18;;;4.00;;
19312;SDS011;9791;50.820;4.406;2023-04-24T12:31:48;10.52;;;4.60;;
19312;SDS011;9791;50.820;4.406;2023-04-24T12:34:20;9.55;;;4.20;;
19312;SDS011;9791;50.820;4.406;2023-04-24T12:36:47;7.95;;;4.10;;
19312;SDS011;9791;50.820;4.406;2023-04-24T12:39:19;7.85;;;4.40;;
19312;SDS011;9791;50.820;4.406;2023-04-24T12:41:57;9.25;;;4.47;;
19312;SDS011;9791;50.820;4.406;2023-04-24T12:44:31;10.85;;;4.25;;
19312;SDS011;9791;50.820;4.406;2023-04-24T12:46:59;10.25;;;4.70;;
19312;SDS011;9791;50.820;4.406;2023-04-24T12:49:25;8.07;;;4.40;;
19312;SDS011;9791;50.820;4.406;2023-04-24T12:51:51;8.10;;;3.42;;
19312;SDS011;9791;50.820;4.406;2023-04-24T12:54:17;13.18;;;4.43;;
19312;SDS011;9791;50.820;4.406;2023-04-24T12:56:43;7.63;;;4.03;;
19312;SDS011;9791;50.820;4.406;2023-04-24T12:59:09;9.88;;;4.20;;
19312;SDS011;9791;50.820;4.406;2023-04-24T13:01:35;6.20;;;4.05;;
19312;SDS011;9791;50.820;4.406;2023-04-24T13:04:01;6.65;;;3.45;;
19312;SDS011;9791;50.820;4.406;2023-04-24T13:06:27;5.97;;;2.97;;
19312;SDS011;9791;50.820;4.406;2023-04-24T13:08:53;8.43;;;3.85;;
19312;SDS011;9791;50.820;4.406;2023-04-24T13:11:22;14.48;;;3.70;;
19312;SDS011;9791;50.820;4.406;2023-04-24T13:13:48;7.80;;;3.50;;
19312;SDS011;9791;50.820;4.406;2023-04-24T13:16:14;8.63;;;3.70;;
19312;SDS011;9791;50.820;4.406;2023-04-24T13:18:40;8.13;;;3.08;;
19312;SDS011;9791;50.820;4.406;2023-04-24T13:21:06;5.90;;;3.20;;
19312;SDS011;9791;50.820;4.406;2023-04-24T13:23:33;7.93;;;3.38;;
19312;SDS011;9791;50.820;4.406;2023-04-24T13:25:59;6.70;;;3.22;;
19312;SDS011;9791;50.820;4.406;2023-04-24T13:28:26;6.03;;;3.00;;
19312;SDS011;9791;50.820;4.406;2023-04-24T13:30:53;5.97;;;3.08;;
19312;SDS011;9791;50.820;4.406;2023-04-24T13:33:19;5.80;;;2.97;;
19312;SDS011;9791;50.820;4.406;2023-04-24T13:35:45;7.03;;;2.72;;
19312;SDS011;9791;50.820;4.406;2023-04-24T13:38:11;7.03;;;2.85;;
19312;SDS011;9791;50.820;4.406;2023-04-24T13:40:37;6.50;;;2.88;;
19312;SDS011;9791;50.820;4.406;2023-04-24T13:43:03;6.40;;;2.60;;
19312;SDS011;9791;50.820;4.406;2023-04-24T13:45:29;6.43;;;2.78;;
19312;SDS011;9791;50.820;4.406;2023-04-24T13:47:55;6.47;;;2.58;;
19312;SDS011;9791;50.820;4.406;2023-04-24T13:50:22;6.97;;;2.60;;
19312;SDS011;9791;50.820;4.406;2023-04-24T13:52:48;5.05;;;2.33;;
19312;SDS011;9791;50.820;4.406;2023-04-24T13:55:14;4.82;;;2.13;;
19312;SDS011;9791;50.820;4.406;2023-04-24T13:57:40;6.07;;;2.55;;
19312;SDS011;9791;50.820;4.406;2023-04-24T14:00:06;7.82;;;2.53;;
19312;SDS011;9791;50.820;4.406;2023-04-24T14:02:36;7.90;;;2.60;;
19312;SDS011;9791;50.820;4.406;2023-04-24T14:05:02;5.55;;;2.53;;
19312;SDS011;9791;50.820;4.406;2023-04-24T14:07:28;4.55;;;2.17;;
19312;SDS011;9791;50.820;4.406;2023-04-24T14:09:55;5.18;;;2.17;;
19312;SDS011;9791;50.820;4.406;2023-04-24T14:12:21;8.20;;;2.30;;
19312;SDS011;9791;50.820;4.406;2023-04-24T14:14:47;4.88;;;2.10;;
19312;SDS011;9791;50.820;4.406;2023-04-24T14:17:14;7.10;;;2.22;;
19312;SDS011;9791;50.820;4.406;2023-04-24T14:19:40;4.68;;;1.90;;
19312;SDS011;9791;50.820;4.406;2023-04-24T14:22:06;6.00;;;2.05;;
19312;SDS011;9791;50.820;4.406;2023-04-24T14:24:32;7.10;;;2.85;;
19312;SDS011;9791;50.820;4.406;2023-04-24T14:26:58;5.50;;;2.20;;
19312;SDS011;9791;50.820;4.406;2023-04-24T14:29:25;5.85;;;2.00;;
19312;SDS011;9791;50.820;4.406;2023-04-24T14:31:51;5.57;;;1.92;;
19312;SDS011;9791;50.820;4.406;2023-04-24T14:34:17;5.47;;;1.80;;
19312;SDS011;9791;50.820;4.406;2023-04-24T14:36:43;4.95;;;2.05;;
19312;SDS011;9791;50.820;4.406;2023-04-24T14:39:09;5.10;;;1.85;;
19312;SDS011;9791;50.820;4.406;2023-04-24T14:41:35;4.13;;;1.70;;
19312;SDS011;9791;50.820;4.406;2023-04-24T14:44:02;4.68;;;1.90;;
19312;SDS011;9791;50.820;4.406;2023-04-24T14:46:29;4.88;;;1.80;;
19312;SDS011;9791;50.820;4.406;2023-04-24T14:48:56;7.68;;;1.80;;
19312;SDS011;9791;50.820;4.406;2023-04-24T14:51:22;7.13;;;1.63;;
19312;SDS011;9791;50.820;4.406;2023-04-24T14:53:48;5.07;;;1.75;;
19312;SDS011;9791;50.820;4.406;2023-04-24T14:56:14;4.03;;;1.50;;
19312;SDS011;9791;50.820;4.406;2023-04-24T14:58:40;5.25;;;1.73;;
19312;SDS011;9791;50.820;4.406;2023-04-24T15:01:06;5.65;;;1.83;;